createdAt,value
2019-01-23T00:00:16.151Z,45.37
2019-01-23T00:02:44.920Z,48.50
2019-01-23T00:05:13.682Z,47.00
2019-01-23T00:07:42.350Z,47.13
2019-01-23T00:10:11.206Z,48.03
2019-01-23T00:12:39.830Z,49.30
2019-01-23T00:15:08.636Z,48.07
2019-01-23T00:17:37.325Z,47.63
2019-01-23T00:20:08.152Z,49.40
2019-01-23T00:22:36.789Z,47.90
2019-01-23T00:25:08.486Z,49.37
2019-01-23T00:27:37.184Z,48.10
2019-01-23T00:30:14.032Z,47.43
2019-01-23T00:32:42.736Z,48.87
2019-01-23T00:35:11.584Z,43.63
2019-01-23T00:37:40.337Z,46.47
2019-01-23T00:40:12.242Z,50.07
2019-01-23T00:42:40.933Z,48.53
2019-01-23T00:45:12.475Z,50.40
2019-01-23T00:47:41.163Z,46.60
2019-01-23T00:50:11.208Z,50.00
2019-01-23T00:52:39.881Z,46.57
2019-01-23T00:55:11.715Z,46.43
2019-01-23T00:57:40.374Z,46.07
2019-01-23T01:00:18.176Z,48.33
2019-01-23T01:02:47.244Z,48.10
2019-01-23T01:05:17.174Z,50.70
2019-01-23T01:07:45.969Z,45.70
2019-01-23T01:10:17.702Z,45.50
2019-01-23T01:12:46.561Z,49.40
2019-01-23T01:15:15.694Z,49.27
2019-01-23T01:17:44.461Z,44.77
2019-01-23T01:20:16.746Z,46.53
2019-01-23T01:22:45.537Z,44.00
2019-01-23T01:25:16.726Z,46.97
2019-01-23T01:27:45.458Z,46.77
2019-01-23T01:30:17.124Z,44.63
2019-01-23T01:32:45.920Z,44.67
2019-01-23T01:35:14.752Z,47.73
2019-01-23T01:37:43.544Z,47.57
2019-01-23T01:40:14.567Z,48.80
2019-01-23T01:42:43.360Z,45.23
2019-01-23T01:45:13.608Z,46.67
2019-01-23T01:47:42.357Z,47.17
2019-01-23T01:50:16.862Z,49.90
2019-01-23T01:52:45.588Z,47.93
2019-01-23T01:55:14.463Z,46.77
2019-01-23T01:57:43.124Z,47.03
2019-01-23T02:00:16.820Z,45.90
2019-01-23T02:02:45.539Z,47.93
2019-01-23T02:05:14.510Z,49.30
2019-01-23T02:07:43.238Z,51.13
2019-01-23T02:10:17.319Z,48.27
2019-01-23T02:12:46.051Z,49.90
2019-01-23T02:15:15.835Z,46.80
2019-01-23T02:17:44.561Z,49.00
2019-01-23T02:20:18.561Z,47.17
2019-01-23T02:22:47.330Z,48.83
2019-01-23T02:25:16.133Z,47.10
2019-01-23T02:27:46.025Z,51.50
2019-01-23T02:30:19.752Z,49.20
2019-01-23T02:32:48.478Z,46.00
2019-01-23T02:35:17.247Z,47.60
2019-01-23T02:37:45.858Z,46.33
2019-01-23T02:40:17.354Z,47.00
2019-01-23T02:42:46.119Z,49.97
2019-01-23T02:45:15.850Z,46.47
2019-01-23T02:47:44.624Z,50.20
2019-01-23T02:50:14.097Z,44.90
2019-01-23T02:52:42.868Z,46.77
2019-01-23T02:55:12.296Z,42.97
2019-01-23T02:57:41.084Z,45.47
2019-01-23T03:00:15.554Z,43.77
2019-01-23T03:02:44.722Z,44.43
2019-01-23T03:05:15.640Z,43.83
2019-01-23T03:07:44.424Z,44.03
2019-01-23T03:10:17.835Z,41.20
2019-01-23T03:12:46.666Z,48.00
2019-01-23T03:15:17.223Z,44.60
2019-01-23T03:17:45.926Z,44.50
2019-01-23T03:20:16.353Z,45.87
2019-01-23T03:22:45.126Z,41.40
2019-01-23T03:25:15.079Z,43.23
2019-01-23T03:27:43.834Z,45.90
2019-01-23T03:30:15.318Z,39.13
2019-01-23T03:32:44.048Z,42.80
2019-01-23T03:35:12.786Z,42.00
2019-01-23T03:37:41.475Z,41.73
2019-01-23T03:40:13.370Z,42.20
2019-01-23T03:42:41.955Z,45.40
2019-01-23T03:45:12.143Z,44.83
2019-01-23T03:47:40.870Z,41.77
2019-01-23T03:50:12.335Z,42.90
2019-01-23T03:52:41.121Z,44.80
2019-01-23T03:55:11.418Z,45.20
2019-01-23T03:57:40.188Z,42.73
2019-01-23T04:00:14.707Z,42.33
2019-01-23T04:02:43.521Z,44.90
2019-01-23T04:05:12.243Z,48.23
2019-01-23T04:07:40.894Z,43.63
2019-01-23T04:10:14.746Z,44.60
2019-01-23T04:12:43.476Z,43.47
2019-01-23T04:15:16.883Z,46.97
2019-01-23T04:17:45.598Z,44.30
2019-01-23T04:20:19.517Z,42.67
2019-01-23T04:22:48.265Z,45.13
2019-01-23T04:25:17.107Z,45.97
2019-01-23T04:27:45.737Z,46.13
2019-01-23T04:30:24.629Z,46.67
2019-01-23T04:32:53.343Z,47.00
2019-01-23T04:35:22.180Z,41.53
2019-01-23T04:37:50.990Z,49.83
2019-01-23T04:40:19.721Z,43.03
2019-01-23T04:42:48.490Z,46.50
2019-01-23T04:45:17.724Z,47.67
2019-01-23T04:47:46.458Z,48.33
2019-01-23T04:50:17.137Z,47.23
2019-01-23T04:52:59.937Z,48.67
2019-01-23T04:55:28.711Z,43.00
2019-01-23T04:57:57.427Z,41.77
2019-01-23T05:00:27.723Z,44.40
2019-01-23T05:02:56.441Z,40.90
2019-01-23T05:05:25.189Z,41.00
2019-01-23T05:07:53.992Z,44.13
2019-01-23T05:10:22.747Z,43.27
2019-01-23T05:12:51.518Z,42.67
2019-01-23T05:15:20.246Z,43.27
2019-01-23T05:17:49.008Z,44.53
2019-01-23T05:20:17.781Z,43.93
2019-01-23T05:22:46.495Z,46.43
2019-01-23T05:25:15.225Z,46.43
2019-01-23T05:27:43.993Z,41.97
2019-01-23T05:30:18.266Z,47.30
2019-01-23T05:32:46.926Z,44.00
2019-01-23T05:35:15.649Z,45.40
2019-01-23T05:37:44.337Z,44.83
2019-01-23T05:40:13.522Z,45.13
2019-01-23T05:42:42.215Z,48.83
2019-01-23T05:45:13.277Z,44.97
2019-01-23T05:47:42.012Z,45.10
2019-01-23T05:50:16.250Z,48.87
2019-01-23T05:52:44.897Z,47.57
2019-01-23T05:55:14.428Z,46.37
2019-01-23T05:57:43.198Z,48.67
2019-01-23T06:00:15.040Z,47.40
2019-01-23T06:02:43.775Z,45.10
2019-01-23T06:05:13.106Z,45.37
2019-01-23T06:07:41.737Z,44.63
2019-01-23T06:10:11.330Z,47.90
2019-01-23T06:12:40.129Z,44.13
2019-01-23T06:15:16.556Z,45.27
2019-01-23T06:17:45.254Z,47.13
2019-01-23T06:20:16.639Z,42.07
2019-01-23T06:22:45.480Z,44.73
2019-01-23T06:25:14.351Z,49.07
2019-01-23T06:27:43.109Z,44.30
2019-01-23T06:30:15.119Z,49.67
2019-01-23T06:32:43.788Z,45.60
2019-01-23T06:35:12.650Z,47.73
2019-01-23T06:37:41.404Z,46.97
2019-01-23T06:40:12.744Z,45.07
2019-01-23T06:42:41.448Z,47.73
2019-01-23T06:45:12.389Z,43.70
2019-01-23T06:47:41.247Z,50.40
2019-01-23T06:50:15.133Z,46.93
2019-01-23T06:52:43.785Z,52.93
2019-01-23T06:55:12.580Z,48.10
2019-01-23T06:57:41.185Z,48.97
2019-01-23T07:00:17.326Z,51.47
2019-01-23T07:02:46.372Z,50.97
2019-01-23T07:05:15.465Z,48.13
2019-01-23T07:07:44.130Z,53.90
2019-01-23T07:10:18.129Z,48.73
2019-01-23T07:12:47.751Z,50.07
2019-01-23T07:15:16.553Z,50.03
2019-01-23T07:17:45.290Z,50.90
2019-01-23T07:20:22.405Z,51.77
2019-01-23T07:22:50.994Z,50.67
2019-01-23T07:25:20.068Z,50.67
2019-01-23T07:27:48.761Z,49.97
2019-01-23T07:30:24.201Z,50.43
2019-01-23T07:32:50.756Z,48.83
2019-01-23T07:35:19.466Z,50.30
2019-01-23T07:37:48.140Z,49.60
2019-01-23T07:40:16.869Z,52.10
2019-01-23T07:42:45.592Z,51.80
2019-01-23T07:45:19.693Z,48.53
2019-01-23T07:47:48.409Z,49.00
2019-01-23T07:50:17.297Z,48.67
2019-01-23T07:52:46.658Z,52.23
2019-01-23T07:55:17.485Z,49.90
2019-01-23T07:57:46.275Z,47.20
2019-01-23T08:00:20.467Z,51.77
2019-01-23T08:02:49.228Z,49.70
2019-01-23T08:05:20.565Z,47.90
2019-01-23T08:07:49.343Z,48.17
2019-01-23T08:10:20.469Z,48.77
2019-01-23T08:12:49.294Z,50.60
2019-01-23T08:15:23.646Z,50.63
2019-01-23T08:17:52.337Z,46.80
2019-01-23T08:20:23.137Z,46.87
2019-01-23T08:22:51.831Z,47.37
2019-01-23T08:25:20.530Z,47.97
2019-01-23T08:27:49.189Z,49.53
2019-01-23T08:30:20.323Z,46.43
2019-01-23T08:32:49.087Z,45.40
2019-01-23T08:35:19.056Z,49.50
2019-01-23T08:37:47.820Z,46.70
2019-01-23T08:40:17.955Z,49.47
2019-01-23T08:42:46.741Z,47.37
2019-01-23T08:45:15.837Z,44.83
2019-01-23T08:47:44.615Z,43.63
2019-01-23T08:50:24.962Z,43.00
2019-01-23T08:52:53.624Z,41.63
2019-01-23T08:55:23.017Z,45.60
2019-01-23T08:57:51.773Z,41.23
2019-01-23T09:00:20.536Z,41.63
2019-01-23T09:02:49.167Z,42.03
2019-01-23T09:05:17.893Z,45.03
2019-01-23T09:07:46.656Z,41.83
2019-01-23T09:10:18.326Z,44.50
2019-01-23T09:12:46.942Z,42.60
2019-01-23T09:15:16.860Z,45.37
2019-01-23T09:17:45.636Z,42.83
2019-01-23T09:20:21.738Z,41.47
2019-01-23T09:22:50.535Z,40.83
2019-01-23T09:25:26.740Z,44.83
2019-01-23T09:27:55.531Z,41.10
2019-01-23T09:30:27.132Z,42.67
2019-01-23T09:33:07.638Z,43.50
2019-01-23T09:35:54.532Z,42.30
2019-01-23T09:38:38.434Z,42.83
2019-01-23T09:41:13.018Z,42.70
2019-01-23T09:43:59.859Z,42.33
2019-01-23T09:46:49.654Z,41.17
2019-01-23T09:49:27.360Z,45.87
2019-01-23T09:52:23.398Z,45.73
2019-01-23T09:54:52.043Z,44.20
2019-01-23T09:57:20.718Z,45.60
2019-01-23T09:59:49.480Z,46.47
2019-01-23T10:02:18.112Z,47.93
2019-01-23T10:04:46.723Z,47.93
2019-01-23T10:07:15.371Z,45.10
2019-01-23T10:09:43.985Z,48.43
2019-01-23T10:12:12.603Z,45.53
2019-01-23T10:14:41.387Z,42.87
2019-01-23T10:17:10.069Z,40.63
2019-01-23T10:19:38.662Z,46.47
2019-01-23T10:22:07.454Z,43.33
2019-01-23T10:24:36.256Z,45.27
2019-01-23T10:27:04.970Z,46.80
2019-01-23T10:29:33.674Z,45.93
2019-01-23T10:32:02.332Z,45.50
2019-01-23T10:34:32.393Z,44.80
2019-01-23T10:37:01.282Z,46.17
2019-01-23T10:39:29.930Z,40.60
2019-01-23T10:41:58.553Z,43.67
2019-01-23T10:44:27.208Z,43.10
2019-01-23T10:46:55.905Z,45.13
2019-01-23T10:49:24.557Z,46.90
2019-01-23T10:51:53.251Z,43.73
2019-01-23T10:54:21.905Z,42.20
2019-01-23T10:56:50.634Z,43.23
2019-01-23T10:59:19.334Z,40.93
2019-01-23T11:01:47.918Z,49.77
2019-01-23T11:04:16.597Z,45.70
2019-01-23T11:06:45.353Z,43.20
2019-01-23T11:09:14.194Z,42.93
2019-01-23T11:11:42.799Z,47.57
2019-01-23T11:14:11.527Z,42.83
2019-01-23T11:16:40.169Z,44.27
2019-01-23T11:19:08.858Z,43.53
2019-01-23T11:21:37.465Z,44.87
2019-01-23T11:24:06.247Z,42.67
2019-01-23T11:26:34.958Z,47.90
2019-01-23T11:29:03.717Z,44.57
2019-01-23T11:31:32.371Z,41.83
2019-01-23T11:34:01.084Z,44.90
2019-01-23T11:36:29.708Z,45.67
2019-01-23T11:38:58.364Z,44.63
2019-01-23T11:41:26.963Z,43.27
2019-01-23T11:43:55.583Z,44.77
2019-01-23T11:46:24.270Z,42.97
2019-01-23T11:48:53.003Z,44.50
2019-01-23T11:51:21.650Z,42.63
2019-01-23T11:53:50.318Z,44.33
2019-01-23T11:56:19.096Z,43.60
2019-01-23T11:58:47.685Z,40.33
2019-01-23T12:01:16.450Z,42.07
2019-01-23T12:03:45.069Z,42.57
2019-01-23T12:06:13.717Z,43.40
2019-01-23T12:08:42.419Z,40.00
2019-01-23T12:11:11.084Z,40.13
2019-01-23T12:13:39.861Z,41.83
2019-01-23T12:16:08.507Z,38.87
2019-01-23T12:18:37.215Z,41.13
2019-01-23T12:21:05.935Z,41.40
2019-01-23T12:23:34.616Z,39.83
2019-01-23T12:26:03.228Z,37.87
2019-01-23T12:28:31.920Z,39.07
2019-01-23T12:31:00.577Z,39.30
2019-01-23T12:33:29.287Z,41.60
2019-01-23T12:35:57.943Z,42.43
2019-01-23T12:38:26.514Z,38.57
2019-01-23T12:40:55.217Z,40.10
2019-01-23T12:43:23.980Z,42.00
2019-01-23T12:45:52.561Z,44.30
2019-01-23T12:48:21.326Z,43.93
2019-01-23T12:50:50.049Z,41.03
2019-01-23T12:53:18.682Z,42.97
2019-01-23T12:55:47.262Z,41.57
2019-01-23T12:58:15.975Z,40.30
2019-01-23T13:00:44.845Z,39.37
2019-01-23T13:03:13.610Z,41.67
2019-01-23T13:05:42.329Z,42.20
2019-01-23T13:08:11.122Z,41.17
2019-01-23T13:10:39.696Z,41.63
2019-01-23T13:13:08.449Z,43.07
2019-01-23T13:15:37.173Z,45.83
2019-01-23T13:18:05.967Z,42.23
2019-01-23T13:20:34.684Z,42.70
2019-01-23T13:23:03.325Z,42.53
2019-01-23T13:25:31.931Z,44.97
2019-01-23T13:28:02.086Z,42.97
2019-01-23T13:30:30.792Z,45.43
2019-01-23T13:32:59.532Z,41.67
2019-01-23T13:35:31.322Z,40.97
2019-01-23T13:38:00.379Z,43.67
2019-01-23T13:40:34.417Z,43.77
2019-01-23T13:43:03.664Z,43.40
2019-01-23T13:45:32.433Z,40.90
2019-01-23T13:48:01.685Z,42.80
2019-01-23T13:50:30.369Z,43.27
2019-01-23T13:52:59.236Z,48.53
2019-01-23T13:55:28.029Z,39.77
2019-01-23T13:57:56.739Z,44.70
2019-01-23T14:00:31.217Z,47.87
2019-01-23T14:03:00.046Z,46.03
2019-01-23T14:05:28.801Z,44.33
2019-01-23T14:07:57.565Z,41.37
2019-01-23T14:10:26.590Z,44.03
2019-01-23T14:12:55.733Z,44.50
2019-01-23T14:15:33.430Z,44.10
2019-01-23T14:18:02.257Z,44.57
2019-01-23T14:20:30.931Z,45.53
2019-01-23T14:22:59.804Z,43.40
2019-01-23T14:25:28.588Z,42.50
2019-01-23T14:27:57.204Z,44.90
2019-01-23T14:30:34.073Z,45.67
2019-01-23T14:33:02.818Z,44.23
2019-01-23T14:35:32.170Z,46.03
2019-01-23T14:38:01.106Z,44.93
2019-01-23T14:40:29.893Z,44.40
2019-01-23T14:42:58.719Z,48.77
2019-01-23T14:45:28.789Z,45.60
2019-01-23T14:47:57.609Z,47.77
2019-01-23T14:50:26.557Z,45.80
2019-01-23T14:52:55.489Z,47.53
2019-01-23T14:55:24.556Z,47.10
2019-01-23T14:57:53.348Z,45.93
2019-01-23T15:00:27.930Z,49.50
2019-01-23T15:02:57.093Z,44.03
2019-01-23T15:05:25.983Z,46.73
2019-01-23T15:07:54.806Z,45.13
2019-01-23T15:10:26.265Z,47.37
2019-01-23T15:12:55.497Z,43.47
2019-01-23T15:15:24.453Z,50.07
2019-01-23T15:17:53.780Z,46.37
2019-01-23T15:20:56.599Z,47.73
2019-01-23T15:23:25.266Z,50.87
2019-01-23T15:25:53.988Z,45.67
2019-01-23T15:28:22.777Z,46.57
2019-01-23T15:30:51.609Z,46.50
2019-01-23T15:33:20.331Z,46.77
2019-01-23T15:35:48.942Z,47.93
2019-01-23T15:38:17.827Z,49.27
2019-01-23T15:40:46.605Z,50.20
2019-01-23T15:43:15.318Z,47.00
2019-01-23T15:45:44.088Z,46.77
2019-01-23T15:48:13.107Z,43.97
2019-01-23T15:50:42.097Z,45.07
2019-01-23T15:53:11.537Z,47.27
2019-01-23T15:55:40.881Z,47.17
2019-01-23T15:58:10.233Z,45.90
2019-01-23T16:00:39.214Z,47.77
2019-01-23T16:03:08.321Z,46.33
2019-01-23T16:05:37.083Z,44.83
2019-01-23T16:08:06.025Z,46.40
2019-01-23T16:10:35.092Z,47.57
2019-01-23T16:13:03.847Z,47.00
2019-01-23T16:15:33.925Z,49.07
2019-01-23T16:18:02.856Z,44.13
2019-01-23T16:20:31.595Z,51.80
2019-01-23T16:23:00.459Z,46.53
2019-01-23T16:25:29.262Z,49.73
2019-01-23T16:27:57.920Z,49.67
2019-01-23T16:30:32.651Z,52.03
2019-01-23T16:33:01.401Z,49.60
2019-01-23T16:35:30.273Z,47.80
2019-01-23T16:37:59.114Z,52.33
2019-01-23T16:40:27.963Z,49.27
2019-01-23T16:42:56.766Z,48.43
2019-01-23T16:45:25.592Z,50.07
2019-01-23T16:47:54.819Z,49.13
2019-01-23T16:50:26.829Z,46.80
2019-01-23T16:52:56.338Z,49.10
2019-01-23T16:55:26.416Z,51.87
2019-01-23T16:57:56.466Z,50.47
2019-01-23T17:00:27.720Z,47.03
2019-01-23T17:02:57.474Z,49.50
2019-01-23T17:05:29.450Z,51.37
2019-01-23T17:08:00.086Z,50.20
2019-01-23T17:10:29.436Z,44.40
2019-01-23T17:12:58.554Z,49.67
2019-01-23T17:15:27.745Z,49.07
2019-01-23T17:17:56.538Z,51.47
2019-01-23T17:20:34.506Z,49.07
2019-01-23T17:23:03.420Z,52.03
2019-01-23T17:25:32.587Z,48.57
2019-01-23T17:28:02.721Z,45.77
2019-01-23T17:30:32.148Z,49.93
2019-01-23T17:33:01.417Z,46.60
2019-01-23T17:35:30.289Z,45.93
2019-01-23T17:37:59.593Z,48.60
2019-01-23T17:40:28.541Z,48.30
2019-01-23T17:42:57.640Z,45.93
2019-01-23T17:45:35.514Z,50.87
2019-01-23T17:48:06.227Z,53.53
2019-01-23T17:50:35.189Z,50.20
2019-01-23T17:53:04.171Z,45.00
2019-01-23T17:55:38.114Z,49.70
2019-01-23T17:58:09.490Z,47.83
2019-01-23T18:00:40.020Z,55.10
2019-01-23T18:03:12.523Z,48.37
2019-01-23T18:05:41.859Z,49.27
2019-01-23T18:08:11.305Z,46.87
2019-01-23T18:10:40.617Z,45.47
2019-01-23T18:13:10.066Z,51.40
2019-01-23T18:15:41.358Z,49.33
2019-01-23T18:18:12.880Z,51.60
2019-01-23T18:20:42.295Z,50.33
2019-01-23T18:23:11.769Z,49.97
2019-01-23T18:25:41.204Z,49.47
2019-01-23T18:28:10.571Z,46.63
2019-01-23T18:30:43.218Z,49.70
2019-01-23T18:33:15.610Z,45.83
2019-01-23T18:35:53.694Z,46.50
2019-01-23T18:38:41.329Z,47.23
2019-01-23T18:41:38.089Z,52.30
2019-01-23T18:44:28.719Z,49.60
2019-01-23T18:47:08.162Z,48.97
2019-01-23T18:49:57.117Z,48.50
2019-01-23T18:52:26.780Z,48.93
2019-01-23T18:54:56.667Z,47.83
2019-01-23T18:57:32.030Z,55.53
2019-01-23T19:00:01.709Z,51.40
2019-01-23T19:02:31.346Z,50.63
2019-01-23T19:05:01.340Z,50.83
2019-01-23T19:07:31.118Z,51.93
2019-01-23T19:10:01.085Z,49.33
2019-01-23T19:12:30.739Z,48.63
2019-01-23T19:15:00.337Z,49.20
2019-01-23T19:17:30.231Z,49.90
2019-01-23T19:19:59.957Z,49.87
2019-01-23T19:22:29.602Z,51.57
2019-01-23T19:24:59.074Z,53.10
2019-01-23T19:27:28.988Z,52.80
2019-01-23T19:29:58.828Z,53.97
2019-01-23T19:32:28.733Z,51.33
2019-01-23T19:34:58.659Z,50.30
2019-01-23T19:37:47.567Z,51.10
2019-01-23T19:40:17.933Z,55.03
2019-01-23T19:42:47.787Z,54.03
2019-01-23T19:45:19.760Z,56.53
2019-01-23T19:47:49.330Z,57.60
2019-01-23T19:50:18.968Z,53.00
2019-01-23T19:52:48.577Z,54.63
2019-01-23T19:55:18.702Z,52.10
2019-01-23T19:57:48.285Z,50.80
2019-01-23T20:00:20.417Z,50.33
2019-01-23T20:02:50.277Z,54.67
2019-01-23T20:05:23.113Z,57.63
2019-01-23T20:07:52.562Z,53.57
2019-01-23T20:10:24.198Z,56.17
2019-01-23T20:12:53.933Z,57.27
2019-01-23T20:15:23.636Z,52.47
2019-01-23T20:17:54.950Z,52.17
2019-01-23T20:20:24.608Z,49.50
2019-01-23T20:22:54.014Z,48.63
2019-01-23T20:25:26.125Z,52.23
2019-01-23T20:27:55.908Z,50.77
2019-01-23T20:30:34.155Z,50.60
2019-01-23T20:33:03.699Z,48.47
2019-01-23T20:35:33.054Z,55.07
2019-01-23T20:38:02.509Z,50.27
2019-01-23T20:40:31.762Z,55.20
2019-01-23T20:43:01.126Z,53.53
2019-01-23T20:45:30.765Z,56.03
2019-01-23T20:48:00.425Z,54.90
2019-01-23T20:50:31.325Z,49.83
2019-01-23T20:53:00.912Z,53.07
2019-01-23T20:55:30.329Z,52.97
2019-01-23T20:57:59.774Z,53.63
2019-01-23T21:00:31.413Z,50.60
2019-01-23T21:03:00.876Z,50.23
2019-01-23T21:05:30.422Z,56.77
2019-01-23T21:07:59.957Z,52.77
2019-01-23T21:10:29.413Z,54.60
2019-01-23T21:12:58.956Z,59.63
2019-01-23T21:15:30.199Z,54.43
2019-01-23T21:17:59.306Z,52.33
2019-01-23T21:20:29.788Z,56.63
2019-01-23T21:22:58.953Z,54.20
2019-01-23T21:25:28.341Z,56.83
2019-01-23T21:27:57.758Z,57.13
2019-01-23T21:30:28.277Z,53.33
2019-01-23T21:32:57.633Z,56.97
2019-01-23T21:35:27.181Z,54.37
2019-01-23T21:37:56.528Z,56.47
2019-01-23T21:40:30.587Z,56.33
2019-01-23T21:42:59.953Z,55.70
2019-01-23T21:45:29.933Z,55.80
2019-01-23T21:47:59.832Z,55.73
2019-01-23T21:50:28.849Z,55.57
2019-01-23T21:52:57.999Z,54.13
2019-01-23T21:55:27.023Z,53.87
2019-01-23T21:57:56.016Z,49.93
2019-01-23T22:00:30.968Z,56.03
2019-01-23T22:03:01.913Z,55.13
2019-01-23T22:05:30.977Z,52.53
2019-01-23T22:07:59.849Z,54.93
2019-01-23T22:10:28.558Z,54.53
2019-01-23T22:12:57.315Z,53.87
2019-01-23T22:15:28.709Z,55.63
2019-01-23T22:17:57.602Z,57.10
2019-01-23T22:20:26.950Z,53.67
2019-01-23T22:22:55.787Z,55.33
2019-01-23T22:25:25.818Z,56.43
2019-01-23T22:27:55.454Z,58.37
2019-01-23T22:30:26.747Z,53.30
2019-01-23T22:32:55.546Z,58.43
2019-01-23T22:35:24.383Z,53.93
2019-01-23T22:37:53.333Z,56.87
2019-01-23T22:40:22.369Z,55.13
2019-01-23T22:42:51.241Z,52.57
2019-01-23T22:45:21.952Z,56.37
2019-01-23T22:47:50.832Z,51.90
2019-01-23T22:50:27.487Z,52.77
2019-01-23T22:52:56.267Z,56.57
2019-01-23T22:55:25.146Z,56.50
2019-01-23T22:57:54.074Z,51.83
2019-01-23T23:00:50.758Z,55.90
2019-01-23T23:03:19.619Z,57.47
2019-01-23T23:05:48.331Z,60.73
2019-01-23T23:08:17.114Z,51.10
2019-01-23T23:10:45.856Z,57.90
2019-01-23T23:13:14.952Z,58.10
2019-01-23T23:15:44.017Z,55.93
2019-01-23T23:18:12.855Z,55.73
2019-01-23T23:20:41.648Z,54.83
2019-01-23T23:23:10.382Z,53.10
2019-01-23T23:25:39.117Z,56.57
2019-01-23T23:28:07.851Z,58.13
2019-01-23T23:30:36.626Z,56.80
2019-01-23T23:33:05.489Z,56.17
2019-01-23T23:35:34.261Z,55.83
2019-01-23T23:38:02.920Z,53.93
2019-01-23T23:40:31.620Z,57.60
2019-01-23T23:43:00.416Z,53.73
2019-01-23T23:45:29.186Z,57.37
2019-01-23T23:47:57.783Z,56.90
2019-01-23T23:50:26.436Z,56.87
2019-01-23T23:52:55.021Z,60.33
2019-01-23T23:55:23.689Z,58.60
2019-01-23T23:57:52.401Z,60.60
